createdAt,value
2023-01-17T00:02:03.494Z,1.55
2023-01-17T00:04:50.635Z,1.40
2023-01-17T00:07:39.050Z,1.95
2023-01-17T00:10:13.005Z,2.30
2023-01-17T00:12:47.689Z,1.48
2023-01-17T00:15:19.548Z,1.90
2023-01-17T00:17:48.621Z,1.63
2023-01-17T00:20:53.367Z,0.90
2023-01-17T00:23:37.594Z,1.13
2023-01-17T00:26:11.935Z,1.45
2023-01-17T00:28:41.488Z,1.60
2023-01-17T00:31:11.011Z,2.00
2023-01-17T00:33:38.537Z,1.45
2023-01-17T00:36:08.447Z,1.45
2023-01-17T00:38:38.380Z,1.55
2023-01-17T00:41:08.390Z,1.60
2023-01-17T00:43:54.675Z,1.50
2023-01-17T00:46:40.746Z,2.03
2023-01-17T00:49:27.358Z,1.70
2023-01-17T00:52:14.316Z,1.73
2023-01-17T00:55:00.648Z,1.63
2023-01-17T00:57:46.990Z,2.50
2023-01-17T01:00:33.877Z,1.40
2023-01-17T01:03:19.652Z,1.35
2023-01-17T01:06:05.807Z,1.05
2023-01-17T01:08:53.074Z,1.60
2023-01-17T01:11:40.175Z,1.75
2023-01-17T01:14:28.567Z,2.22
2023-01-17T01:17:14.483Z,1.40
2023-01-17T01:20:00.145Z,1.15
2023-01-17T01:22:46.364Z,1.80
2023-01-17T01:25:33.864Z,2.00
2023-01-17T01:28:24.032Z,1.17
2023-01-17T01:31:10.016Z,1.58
2023-01-17T01:33:38.759Z,1.30
2023-01-17T01:36:09.946Z,1.65
2023-01-17T01:38:38.879Z,1.77
2023-01-17T01:41:08.573Z,1.75
2023-01-17T01:43:45.633Z,1.73
2023-01-17T01:46:18.346Z,1.45
2023-01-17T01:48:54.044Z,1.73
2023-01-17T01:51:28.673Z,2.22
2023-01-17T01:56:31.637Z,1.48
2023-01-17T01:59:04.104Z,1.67
2023-01-17T02:01:37.470Z,1.70
2023-01-17T02:04:09.770Z,1.73
2023-01-17T02:06:42.939Z,1.45
2023-01-17T02:09:15.070Z,1.80
2023-01-17T02:11:46.958Z,1.40
2023-01-17T02:14:17.145Z,1.63
2023-01-17T02:17:04.803Z,1.38
2023-01-17T02:20:34.695Z,1.42
2023-01-17T02:23:44.216Z,1.60
2023-01-17T02:26:46.537Z,1.40
2023-01-17T02:30:03.113Z,2.35
2023-01-17T02:32:58.725Z,1.60
2023-01-17T02:35:36.172Z,1.80
2023-01-17T02:38:21.868Z,1.35
2023-01-17T02:40:54.240Z,1.02
2023-01-17T02:43:25.796Z,2.10
2023-01-17T02:45:54.427Z,1.85
2023-01-17T02:48:28.421Z,1.63
2023-01-17T02:51:38.780Z,1.75
2023-01-17T02:54:42.211Z,1.90
2023-01-17T02:57:35.438Z,1.70
2023-01-17T03:00:16.451Z,2.03
2023-01-17T03:02:56.853Z,2.17
2023-01-17T03:05:34.351Z,1.73
2023-01-17T03:08:03.884Z,1.60
2023-01-17T03:10:34.349Z,2.33
2023-01-17T03:13:04.017Z,2.65
2023-01-17T03:15:32.442Z,2.00
2023-01-17T03:18:05.345Z,1.98
2023-01-17T03:20:36.262Z,2.13
2023-01-17T03:23:04.708Z,1.50
2023-01-17T03:25:33.277Z,2.00
2023-01-17T03:28:01.826Z,1.48
2023-01-17T03:30:30.016Z,1.20
2023-01-17T03:32:58.600Z,2.05
2023-01-17T03:35:28.177Z,2.05
2023-01-17T03:37:57.912Z,1.85
2023-01-17T03:40:26.250Z,2.08
2023-01-17T03:42:54.820Z,1.80
2023-01-17T03:45:23.284Z,2.38
2023-01-17T03:47:51.824Z,1.65
2023-01-17T03:50:20.651Z,1.98
2023-01-17T03:52:49.272Z,2.08
2023-01-17T03:55:20.506Z,2.25
2023-01-17T03:57:49.093Z,2.05
2023-01-17T04:00:18.273Z,1.92
2023-01-17T04:02:46.990Z,2.10
2023-01-17T04:05:15.556Z,1.70
2023-01-17T04:07:44.026Z,1.83
2023-01-17T04:10:12.564Z,1.73
2023-01-17T04:12:42.444Z,1.65
2023-01-17T04:15:12.057Z,2.00
2023-01-17T04:17:40.607Z,1.40
2023-01-17T04:20:15.054Z,2.05
2023-01-17T04:25:12.888Z,2.13
2023-01-17T04:27:42.452Z,2.45
2023-01-17T04:30:12.948Z,2.28
2023-01-17T04:32:41.425Z,2.22
2023-01-17T04:35:10.584Z,1.95
2023-01-17T04:37:39.542Z,1.83
2023-01-17T04:40:09.877Z,1.80
2023-01-17T04:42:38.925Z,1.70
2023-01-17T04:45:10.139Z,1.38
2023-01-17T04:47:38.687Z,2.15
2023-01-17T04:50:08.433Z,1.48
2023-01-17T04:52:37.068Z,1.42
2023-01-17T04:55:06.063Z,3.00
2023-01-17T04:57:34.663Z,1.88
2023-01-17T05:00:03.318Z,1.88
2023-01-17T05:02:32.970Z,2.38
2023-01-17T05:05:01.476Z,2.15
2023-01-17T05:07:29.702Z,2.08
2023-01-17T05:10:00.737Z,2.40
2023-01-17T05:12:29.542Z,2.40
2023-01-17T05:14:58.129Z,3.20
2023-01-17T05:17:26.762Z,3.60
2023-01-17T05:19:56.312Z,3.05
2023-01-17T05:22:24.808Z,3.90
2023-01-17T05:24:53.489Z,3.00
2023-01-17T05:27:21.741Z,3.08
2023-01-17T05:29:51.809Z,2.05
2023-01-17T05:32:20.401Z,2.55
2023-01-17T05:34:48.872Z,3.17
2023-01-17T05:37:18.721Z,3.30
2023-01-17T05:39:47.188Z,2.70
2023-01-17T05:42:15.545Z,3.55
2023-01-17T05:44:43.761Z,2.80
2023-01-17T05:47:11.947Z,2.60
2023-01-17T05:49:40.140Z,3.50
2023-01-17T05:52:09.778Z,3.05
2023-01-17T05:54:39.313Z,2.58
2023-01-17T05:57:07.811Z,3.45
2023-01-17T05:59:37.303Z,2.63
2023-01-17T06:02:06.188Z,3.25
2023-01-17T06:04:34.699Z,3.15
2023-01-17T06:07:03.186Z,2.70
2023-01-17T06:09:31.364Z,3.35
2023-01-17T06:12:00.987Z,3.92
2023-01-17T06:14:29.203Z,3.33
2023-01-17T06:16:57.381Z,3.97
2023-01-17T06:19:25.935Z,3.55
2023-01-17T06:21:54.411Z,3.08
2023-01-17T06:24:22.884Z,3.78
2023-01-17T06:26:51.121Z,3.45
2023-01-17T06:29:20.758Z,3.17
2023-01-17T06:31:48.947Z,3.83
2023-01-17T06:34:17.516Z,3.20
2023-01-17T06:36:46.064Z,2.83
2023-01-17T06:39:15.326Z,2.75
2023-01-17T06:41:43.994Z,3.88
2023-01-17T06:44:12.466Z,3.25
2023-01-17T06:46:42.050Z,3.20
2023-01-17T06:49:10.585Z,2.85
2023-01-17T06:51:39.069Z,2.83
2023-01-17T06:54:07.379Z,3.55
2023-01-17T06:56:35.910Z,3.25
2023-01-17T06:59:05.103Z,3.10
2023-01-17T07:01:33.698Z,2.42
2023-01-17T07:04:05.378Z,2.45
2023-01-17T07:06:33.648Z,2.03
2023-01-17T07:09:02.004Z,2.78
2023-01-17T07:11:30.852Z,2.53
2023-01-17T07:13:59.021Z,4.10
2023-01-17T07:16:27.603Z,2.63
2023-01-17T07:18:58.010Z,3.03
2023-01-17T07:21:27.558Z,2.75
2023-01-17T07:23:55.737Z,3.08
2023-01-17T07:26:23.997Z,2.00
2023-01-17T07:28:52.172Z,2.83
2023-01-17T07:31:20.723Z,2.20
2023-01-17T07:33:49.222Z,2.35
2023-01-17T07:36:17.758Z,2.78
2023-01-17T07:38:48.863Z,2.90
2023-01-17T07:41:17.075Z,2.33
2023-01-17T07:43:45.643Z,2.47
2023-01-17T07:46:15.173Z,2.38
2023-01-17T07:48:43.754Z,2.75
2023-01-17T07:51:12.347Z,2.90
2023-01-17T07:53:40.588Z,3.75
2023-01-17T07:56:10.355Z,4.03
2023-01-17T07:58:38.846Z,2.53
2023-01-17T08:01:12.477Z,2.67
2023-01-17T08:03:41.308Z,2.47
2023-01-17T08:06:18.090Z,2.88
2023-01-17T08:08:46.921Z,2.35
2023-01-17T08:11:16.574Z,3.10
2023-01-17T08:13:45.174Z,3.28
2023-01-17T08:16:15.272Z,3.30
2023-01-17T08:18:43.906Z,3.83
2023-01-17T08:21:16.803Z,2.78
2023-01-17T08:23:48.280Z,3.03
2023-01-17T08:26:21.497Z,2.50
2023-01-17T08:28:51.107Z,2.88
2023-01-17T08:31:20.097Z,3.10
2023-01-17T08:33:48.908Z,3.20
2023-01-17T08:36:17.334Z,3.13
2023-01-17T08:38:45.795Z,2.97
2023-01-17T08:41:14.274Z,2.88
2023-01-17T08:43:44.103Z,3.50
2023-01-17T08:46:12.529Z,2.78
2023-01-17T08:48:41.066Z,2.55
2023-01-17T08:51:09.952Z,2.40
2023-01-17T08:53:38.720Z,3.22
2023-01-17T08:56:08.076Z,2.47
2023-01-17T08:58:36.865Z,2.33
2023-01-17T09:01:07.463Z,2.53
2023-01-17T09:03:38.364Z,1.98
2023-01-17T09:06:11.136Z,2.22
2023-01-17T09:08:39.580Z,1.73
2023-01-17T09:11:11.031Z,1.77
2023-01-17T09:13:40.654Z,2.20
2023-01-17T09:16:11.115Z,1.60
2023-01-17T09:18:39.706Z,2.58
2023-01-17T09:21:13.391Z,2.10
2023-01-17T09:23:42.406Z,2.33
2023-01-17T09:26:19.871Z,1.95
2023-01-17T09:28:48.530Z,2.47
2023-01-17T09:31:18.833Z,2.70
2023-01-17T09:33:47.101Z,2.92
2023-01-17T09:36:15.707Z,3.15
2023-01-17T09:38:44.637Z,3.97
2023-01-17T09:41:27.370Z,3.83
2023-01-17T09:44:02.696Z,4.30
2023-01-17T09:46:38.443Z,3.53
2023-01-17T09:49:14.227Z,3.30
2023-01-17T09:51:43.264Z,3.08
2023-01-17T09:54:22.049Z,3.70
2023-01-17T09:57:01.708Z,2.97
2023-01-17T09:59:39.757Z,2.33
2023-01-17T10:03:02.920Z,3.13
2023-01-17T10:05:48.936Z,3.15
2023-01-17T10:08:34.665Z,3.50
2023-01-17T10:11:28.333Z,2.97
2023-01-17T10:14:21.292Z,3.47
2023-01-17T10:16:56.089Z,3.47
2023-01-17T10:19:52.002Z,3.42
2023-01-17T10:22:51.163Z,2.80
2023-01-17T10:25:35.591Z,3.30
2023-01-17T10:28:10.879Z,3.40
2023-01-17T10:30:46.071Z,3.67
2023-01-17T10:33:20.771Z,3.55
2023-01-17T10:38:30.239Z,3.92
2023-01-17T10:41:05.742Z,3.83
2023-01-17T10:43:52.718Z,3.20
2023-01-17T10:46:28.447Z,3.70
2023-01-17T10:48:57.761Z,3.08
2023-01-17T10:52:00.108Z,3.00
2023-01-17T10:54:56.498Z,2.55
2023-01-17T10:57:28.017Z,2.47
2023-01-17T11:00:01.437Z,2.85
2023-01-17T11:02:34.116Z,2.90
2023-01-17T11:05:12.199Z,3.13
2023-01-17T11:07:57.311Z,3.13
2023-01-17T11:10:43.824Z,3.03
2023-01-17T11:13:29.368Z,3.90
2023-01-17T11:16:02.206Z,3.25
2023-01-17T11:18:33.338Z,3.40
2023-01-17T11:21:12.733Z,3.78
2023-01-17T11:23:45.361Z,3.42
2023-01-17T11:26:24.297Z,3.80
2023-01-17T11:28:53.376Z,4.30
2023-01-17T11:31:27.604Z,3.72
2023-01-17T11:34:18.037Z,2.78
2023-01-17T11:36:46.411Z,2.83
2023-01-17T11:39:29.485Z,3.53
2023-01-17T11:41:57.732Z,3.47
2023-01-17T11:44:28.116Z,2.67
2023-01-17T11:47:19.176Z,2.72
2023-01-17T11:49:49.985Z,2.47
2023-01-17T11:52:25.159Z,2.55
2023-01-17T11:54:56.251Z,3.80
2023-01-17T11:57:28.728Z,2.55
2023-01-17T12:00:11.623Z,2.58
2023-01-17T12:03:14.136Z,2.28
2023-01-17T12:05:56.863Z,2.25
2023-01-17T12:08:41.759Z,2.17
2023-01-17T12:11:19.738Z,2.70
2023-01-17T12:14:03.009Z,2.72
2023-01-17T12:16:52.611Z,3.03
2023-01-17T12:19:49.208Z,2.80
2023-01-17T12:22:42.621Z,2.55
2023-01-17T12:25:29.460Z,2.30
2023-01-17T12:28:19.723Z,2.17
2023-01-17T12:31:04.948Z,2.72
2023-01-17T12:33:45.956Z,1.85
2023-01-17T12:36:31.040Z,2.08
2023-01-17T12:39:05.214Z,2.55
2023-01-17T12:41:45.401Z,3.47
2023-01-17T12:44:19.302Z,2.85
2023-01-17T12:46:54.855Z,3.37
2023-01-17T12:49:43.779Z,3.35
2023-01-17T12:52:24.873Z,2.85
2023-01-17T12:54:59.286Z,2.50
2023-01-17T12:57:34.617Z,2.22
2023-01-17T13:00:11.448Z,2.30
2023-01-17T13:02:48.664Z,1.77
2023-01-17T13:05:23.630Z,2.25
2023-01-17T13:07:59.501Z,2.05
2023-01-17T13:10:36.343Z,2.33
2023-01-17T13:13:19.996Z,1.55
2023-01-17T13:15:54.124Z,1.70
2023-01-17T13:18:27.048Z,1.40
2023-01-17T13:21:14.049Z,1.80
2023-01-17T13:24:05.926Z,1.20
2023-01-17T13:27:05.533Z,1.58
2023-01-17T13:29:47.068Z,1.73
2023-01-17T13:32:38.936Z,1.27
2023-01-17T13:35:22.241Z,1.40
2023-01-17T13:38:12.661Z,1.45
2023-01-17T13:40:51.942Z,1.45
2023-01-17T13:43:25.653Z,1.33
2023-01-17T13:45:56.879Z,2.67
2023-01-17T13:48:38.010Z,6.13
2023-01-17T13:51:07.047Z,3.33
2023-01-17T13:53:57.244Z,1.80
2023-01-17T13:56:32.454Z,2.15
2023-01-17T13:59:21.793Z,2.25
2023-01-17T14:01:53.133Z,1.35
2023-01-17T14:04:24.723Z,1.38
2023-01-17T14:07:25.699Z,1.75
2023-01-17T14:09:54.037Z,1.48
2023-01-17T14:12:31.673Z,1.40
2023-01-17T14:15:02.506Z,1.00
2023-01-17T14:17:57.274Z,1.48
2023-01-17T14:20:52.199Z,1.90
2023-01-17T14:23:36.488Z,1.52
2023-01-17T14:26:49.677Z,1.48
2023-01-17T14:29:58.959Z,1.27
2023-01-17T14:32:31.380Z,1.30
2023-01-17T14:35:00.440Z,0.88
2023-01-17T14:37:43.163Z,1.00
2023-01-17T14:40:26.418Z,1.45
2023-01-17T14:43:02.402Z,1.27
2023-01-17T14:45:33.619Z,1.25
2023-01-17T14:48:05.522Z,1.17
2023-01-17T14:50:39.331Z,2.38
2023-01-17T14:53:19.967Z,1.97
2023-01-17T14:55:55.084Z,1.60
2023-01-17T14:58:26.536Z,1.02
2023-01-17T15:01:02.254Z,0.60
2023-01-17T15:03:34.455Z,0.70
2023-01-17T15:06:13.693Z,0.90
2023-01-17T15:08:43.618Z,0.80
2023-01-17T15:11:20.840Z,2.38
2023-01-17T15:13:53.262Z,2.22
2023-01-17T15:16:25.608Z,2.10
2023-01-17T15:18:55.870Z,1.58
2023-01-17T15:21:27.435Z,1.10
2023-01-17T15:23:59.969Z,1.30
2023-01-17T15:26:34.266Z,1.38
2023-01-17T15:29:07.498Z,1.48
2023-01-17T15:31:42.860Z,1.45
2023-01-17T15:34:22.981Z,1.05
2023-01-17T15:36:51.862Z,1.45
2023-01-17T15:39:24.863Z,1.85
2023-01-17T15:41:55.771Z,1.75
2023-01-17T15:44:42.606Z,1.17
2023-01-17T15:47:29.740Z,1.52
2023-01-17T15:49:58.441Z,1.70
2023-01-17T15:52:27.079Z,1.58
2023-01-17T15:55:12.178Z,2.28
2023-01-17T15:57:40.866Z,2.42
2023-01-17T16:00:21.820Z,2.67
2023-01-17T16:02:55.097Z,2.30
2023-01-17T16:05:43.709Z,6.38
2023-01-17T16:08:33.947Z,26.02
2023-01-17T16:11:06.356Z,18.33
2023-01-17T16:13:37.752Z,4.20
2023-01-17T16:16:22.408Z,2.15
2023-01-17T16:18:56.898Z,1.55
2023-01-17T16:21:27.738Z,2.10
2023-01-17T16:23:56.635Z,7.28
2023-01-17T16:26:27.585Z,7.07
2023-01-17T16:28:55.833Z,5.25
2023-01-17T16:31:24.180Z,3.88
2023-01-17T16:33:52.522Z,3.95
2023-01-17T16:36:22.765Z,3.55
2023-01-17T16:38:53.151Z,2.70
2023-01-17T16:41:21.874Z,3.03
2023-01-17T16:44:01.200Z,3.78
2023-01-17T16:46:30.673Z,3.55
2023-01-17T16:49:02.072Z,2.33
2023-01-17T16:51:31.014Z,2.60
2023-01-17T16:53:59.452Z,2.83
2023-01-17T16:56:28.114Z,2.50
2023-01-17T16:58:57.724Z,3.47
2023-01-17T17:01:26.433Z,4.70
2023-01-17T17:03:54.900Z,2.72
2023-01-17T17:06:23.387Z,2.90
2023-01-17T17:08:51.601Z,3.88
2023-01-17T17:11:23.126Z,4.05
2023-01-17T17:13:52.707Z,5.03
2023-01-17T17:16:29.808Z,3.33
2023-01-17T17:19:01.001Z,3.35
2023-01-17T17:21:30.762Z,2.88
2023-01-17T17:24:01.277Z,2.25
2023-01-17T17:26:34.930Z,1.60
2023-01-17T17:29:04.200Z,2.33
2023-01-17T17:31:34.103Z,1.50
2023-01-17T17:34:04.703Z,2.25
2023-01-17T17:36:33.205Z,3.30
2023-01-17T17:39:03.560Z,7.95
2023-01-17T17:41:34.439Z,5.85
2023-01-17T17:44:04.076Z,3.67
2023-01-17T17:46:34.880Z,2.75
2023-01-17T17:49:04.118Z,2.38
2023-01-17T17:51:35.033Z,3.08
2023-01-17T17:54:07.286Z,3.13
2023-01-17T17:56:36.284Z,2.08
2023-01-17T17:59:07.315Z,2.08
2023-01-17T18:01:38.143Z,1.45
2023-01-17T18:04:07.845Z,1.83
2023-01-17T18:06:36.386Z,1.75
2023-01-17T18:09:05.823Z,2.75
2023-01-17T18:11:35.244Z,3.35
2023-01-17T18:14:06.365Z,3.58
2023-01-17T18:16:41.379Z,3.67
2023-01-17T18:19:14.288Z,3.72
2023-01-17T18:21:43.026Z,3.90
2023-01-17T18:24:13.928Z,4.45
2023-01-17T18:26:45.194Z,3.78
2023-01-17T18:29:15.904Z,3.13
2023-01-17T18:31:47.306Z,4.13
2023-01-17T18:34:19.222Z,5.70
2023-01-17T18:36:47.827Z,4.63
2023-01-17T18:39:18.445Z,5.50
2023-01-17T18:41:47.127Z,4.38
2023-01-17T18:44:15.628Z,2.67
2023-01-17T18:46:46.642Z,3.75
2023-01-17T18:49:16.466Z,4.57
2023-01-17T18:51:46.584Z,9.32
2023-01-17T18:54:15.415Z,6.90
2023-01-17T18:56:43.935Z,4.30
2023-01-17T18:59:14.277Z,3.65
2023-01-17T19:01:43.606Z,4.60
2023-01-17T19:04:15.537Z,4.22
2023-01-17T19:06:47.008Z,5.28
2023-01-17T19:09:16.878Z,3.90
2023-01-17T19:11:46.520Z,4.40
2023-01-17T19:14:15.636Z,4.30
2023-01-17T19:16:44.899Z,3.90
2023-01-17T19:19:16.785Z,4.18
2023-01-17T19:21:45.250Z,5.22
2023-01-17T19:24:14.227Z,4.07
2023-01-17T19:26:42.919Z,5.35
2023-01-17T19:29:12.043Z,4.78
2023-01-17T19:31:42.991Z,3.80
2023-01-17T19:34:13.664Z,3.53
2023-01-17T19:36:43.409Z,3.65
2023-01-17T19:39:11.795Z,4.47
2023-01-17T19:41:44.461Z,4.32
2023-01-17T19:44:15.021Z,5.80
2023-01-17T19:46:44.109Z,4.57
2023-01-17T19:49:12.468Z,7.28
2023-01-17T19:51:42.122Z,6.90
2023-01-17T19:54:10.655Z,4.75
2023-01-17T19:56:39.212Z,5.70
2023-01-17T19:59:07.456Z,5.07
2023-01-17T20:01:36.338Z,6.88
2023-01-17T20:04:05.624Z,7.95
2023-01-17T20:06:36.155Z,6.78
2023-01-17T20:09:06.834Z,7.82
2023-01-17T20:11:35.026Z,6.35
2023-01-17T20:14:05.440Z,5.93
2023-01-17T20:16:35.985Z,5.47
2023-01-17T20:19:05.035Z,13.20
2023-01-17T20:21:34.290Z,6.50
2023-01-17T20:24:04.146Z,5.38
2023-01-17T20:26:36.047Z,4.93
2023-01-17T20:29:10.379Z,4.90
2023-01-17T20:34:11.409Z,4.47
2023-01-17T20:36:41.583Z,4.75
2023-01-17T20:39:13.307Z,5.65
2023-01-17T20:41:44.607Z,5.82
2023-01-17T20:44:16.119Z,4.43
2023-01-17T20:46:45.689Z,4.57
2023-01-17T20:49:17.187Z,5.28
2023-01-17T20:51:46.640Z,6.45
2023-01-17T20:54:17.784Z,5.20
2023-01-17T20:56:48.114Z,4.93
2023-01-17T20:59:19.497Z,4.20
2023-01-17T21:01:48.230Z,3.63
2023-01-17T21:04:17.920Z,4.28
2023-01-17T21:06:47.486Z,3.65
2023-01-17T21:09:17.188Z,4.05
2023-01-17T21:11:46.876Z,4.47
2023-01-17T21:14:15.641Z,4.15
2023-01-17T21:16:44.603Z,3.53
2023-01-17T21:19:15.793Z,3.53
2023-01-17T21:21:44.082Z,3.05
2023-01-17T21:24:16.278Z,3.90
2023-01-17T21:26:45.662Z,4.07
2023-01-17T21:29:16.415Z,4.35
2023-01-17T21:31:45.177Z,4.65
2023-01-17T21:34:14.513Z,4.32
2023-01-17T21:36:43.861Z,4.07
2023-01-17T21:39:15.641Z,4.07
2023-01-17T21:41:46.615Z,3.78
2023-01-17T21:44:20.203Z,3.75
2023-01-17T21:46:48.902Z,2.90
2023-01-17T21:49:17.425Z,3.60
2023-01-17T21:52:03.656Z,3.88
2023-01-17T21:54:49.764Z,3.40
2023-01-17T21:57:38.627Z,3.65
2023-01-17T22:00:14.227Z,3.33
2023-01-17T22:02:46.221Z,3.03
2023-01-17T22:05:16.349Z,4.07
2023-01-17T22:08:06.337Z,3.88
2023-01-17T22:10:44.439Z,3.50
2023-01-17T22:13:14.443Z,3.95
2023-01-17T22:15:44.603Z,3.63
2023-01-17T22:18:14.495Z,3.42
2023-01-17T22:20:43.526Z,4.50
2023-01-17T22:23:12.329Z,3.50
2023-01-17T22:25:40.533Z,3.28
2023-01-17T22:28:08.773Z,3.58
2023-01-17T22:30:37.251Z,4.40
2023-01-17T22:33:06.859Z,3.30
2023-01-17T22:35:35.114Z,4.13
2023-01-17T22:38:03.618Z,3.92
2023-01-17T22:40:32.701Z,3.63
2023-01-17T22:43:01.236Z,3.95
2023-01-17T22:45:29.721Z,3.72
2023-01-17T22:47:58.224Z,3.65
2023-01-17T22:50:27.827Z,4.30
2023-01-17T22:52:56.785Z,3.80
2023-01-17T22:55:25.609Z,3.85
2023-01-17T22:57:53.782Z,3.42
2023-01-17T23:00:22.459Z,4.00
2023-01-17T23:02:51.086Z,3.42
2023-01-17T23:05:20.155Z,3.40
2023-01-17T23:07:52.406Z,3.88
2023-01-17T23:10:34.690Z,4.00
2023-01-17T23:13:03.006Z,3.67
2023-01-17T23:15:49.042Z,3.65
2023-01-17T23:18:34.657Z,3.17
2023-01-17T23:21:02.843Z,2.92
2023-01-17T23:23:33.256Z,3.13
2023-01-17T23:26:02.109Z,3.33
2023-01-17T23:28:29.656Z,3.45
2023-01-17T23:31:04.891Z,3.17
2023-01-17T23:33:33.411Z,3.92
2023-01-17T23:36:01.652Z,4.75
2023-01-17T23:38:30.141Z,4.43
2023-01-17T23:41:23.554Z,3.78
2023-01-17T23:43:53.387Z,3.53
2023-01-17T23:46:22.417Z,3.55
2023-01-17T23:48:50.668Z,3.10
2023-01-17T23:51:19.219Z,3.72
2023-01-17T23:53:47.748Z,3.97
2023-01-17T23:56:20.695Z,4.05
2023-01-17T23:58:49.066Z,3.67
